sensor_id;sensor_type;location;lat;lon;timestamp;P1;durP1;ratioP1;P2;durP2;ratioP2
53309;SDS011;39197;53.200;5.792;2022-08-05T00:02:21;6.88;;;1.42;;
53309;SDS011;39197;53.200;5.792;2022-08-05T00:04:47;7.40;;;1.27;;
53309;SDS011;39197;53.200;5.792;2022-08-05T00:07:13;6.50;;;0.95;;
53309;SDS011;39197;53.200;5.792;2022-08-05T00:09:39;3.72;;;0.47;;
53309;SDS011;39197;53.200;5.792;2022-08-05T00:12:05;2.72;;;1.00;;
53309;SDS011;39197;53.200;5.792;2022-08-05T00:14:31;7.72;;;2.90;;
53309;SDS011;39197;53.200;5.792;2022-08-05T00:16:56;6.55;;;2.03;;
53309;SDS011;39197;53.200;5.792;2022-08-05T00:19:22;7.40;;;3.17;;
53309;SDS011;39197;53.200;5.792;2022-08-05T00:21:48;8.23;;;5.07;;
53309;SDS011;39197;53.200;5.792;2022-08-05T00:24:14;11.48;;;6.00;;
53309;SDS011;39197;53.200;5.792;2022-08-05T00:26:39;10.35;;;5.60;;
53309;SDS011;39197;53.200;5.792;2022-08-05T00:29:05;10.55;;;3.63;;
53309;SDS011;39197;53.200;5.792;2022-08-05T00:31:30;8.05;;;5.00;;
53309;SDS011;39197;53.200;5.792;2022-08-05T00:33:56;7.55;;;3.50;;
53309;SDS011;39197;53.200;5.792;2022-08-05T00:36:22;7.68;;;2.78;;
53309;SDS011;39197;53.200;5.792;2022-08-05T00:38:48;3.95;;;1.35;;
53309;SDS011;39197;53.200;5.792;2022-08-05T00:41:25;3.80;;;1.13;;
53309;SDS011;39197;53.200;5.792;2022-08-05T00:43:51;4.45;;;2.80;;
53309;SDS011;39197;53.200;5.792;2022-08-05T00:46:17;8.38;;;3.45;;
53309;SDS011;39197;53.200;5.792;2022-08-05T00:48:43;4.93;;;1.88;;
53309;SDS011;39197;53.200;5.792;2022-08-05T00:51:09;6.53;;;2.88;;
53309;SDS011;39197;53.200;5.792;2022-08-05T00:53:34;7.85;;;2.25;;
53309;SDS011;39197;53.200;5.792;2022-08-05T00:56:00;19.88;;;17.55;;
53309;SDS011;39197;53.200;5.792;2022-08-05T00:58:26;17.13;;;6.47;;
53309;SDS011;39197;53.200;5.792;2022-08-05T01:00:51;9.02;;;4.15;;
53309;SDS011;39197;53.200;5.792;2022-08-05T01:03:17;7.85;;;2.70;;
53309;SDS011;39197;53.200;5.792;2022-08-05T01:05:43;11.82;;;3.50;;
53309;SDS011;39197;53.200;5.792;2022-08-05T01:08:09;7.20;;;4.45;;
53309;SDS011;39197;53.200;5.792;2022-08-05T01:10:51;9.82;;;3.28;;
53309;SDS011;39197;53.200;5.792;2022-08-05T01:13:23;11.20;;;3.67;;
53309;SDS011;39197;53.200;5.792;2022-08-05T01:16:13;12.60;;;6.25;;
53309;SDS011;39197;53.200;5.792;2022-08-05T01:18:46;10.38;;;4.28;;
53309;SDS011;39197;53.200;5.792;2022-08-05T01:21:22;4.78;;;1.60;;
53309;SDS011;39197;53.200;5.792;2022-08-05T01:29:07;8.15;;;2.70;;
53309;SDS011;39197;53.200;5.792;2022-08-05T01:36:40;6.28;;;1.42;;
53309;SDS011;39197;53.200;5.792;2022-08-05T01:39:10;10.32;;;5.32;;
53309;SDS011;39197;53.200;5.792;2022-08-05T01:41:38;8.38;;;4.15;;
53309;SDS011;39197;53.200;5.792;2022-08-05T01:44:06;8.57;;;3.88;;
53309;SDS011;39197;53.200;5.792;2022-08-05T01:46:32;7.80;;;2.67;;
53309;SDS011;39197;53.200;5.792;2022-08-05T01:48:59;8.93;;;4.35;;
53309;SDS011;39197;53.200;5.792;2022-08-05T01:51:27;9.55;;;5.00;;
53309;SDS011;39197;53.200;5.792;2022-08-05T01:56:27;13.55;;;8.18;;
53309;SDS011;39197;53.200;5.792;2022-08-05T01:58:55;10.07;;;6.15;;
53309;SDS011;39197;53.200;5.792;2022-08-05T02:01:22;7.35;;;3.25;;
53309;SDS011;39197;53.200;5.792;2022-08-05T02:03:50;5.15;;;2.80;;
53309;SDS011;39197;53.200;5.792;2022-08-05T02:06:17;5.45;;;2.25;;
53309;SDS011;39197;53.200;5.792;2022-08-05T02:08:43;4.07;;;1.30;;
53309;SDS011;39197;53.200;5.792;2022-08-05T02:11:10;7.13;;;3.83;;
53309;SDS011;39197;53.200;5.792;2022-08-05T02:16:15;11.40;;;5.50;;
53309;SDS011;39197;53.200;5.792;2022-08-05T02:19:10;7.25;;;3.35;;
53309;SDS011;39197;53.200;5.792;2022-08-05T02:21:44;3.33;;;1.05;;
53309;SDS011;39197;53.200;5.792;2022-08-05T02:24:17;2.45;;;1.30;;
53309;SDS011;39197;53.200;5.792;2022-08-05T02:26:48;3.75;;;2.10;;
53309;SDS011;39197;53.200;5.792;2022-08-05T02:29:19;3.83;;;1.58;;
53309;SDS011;39197;53.200;5.792;2022-08-05T02:31:48;4.28;;;1.77;;
53309;SDS011;39197;53.200;5.792;2022-08-05T02:34:14;8.82;;;5.00;;
53309;SDS011;39197;53.200;5.792;2022-08-05T02:36:44;3.15;;;1.73;;
53309;SDS011;39197;53.200;5.792;2022-08-05T02:39:15;5.28;;;2.03;;
53309;SDS011;39197;53.200;5.792;2022-08-05T02:41:42;3.70;;;0.98;;
53309;SDS011;39197;53.200;5.792;2022-08-05T02:44:10;3.28;;;1.08;;
53309;SDS011;39197;53.200;5.792;2022-08-05T02:46:37;6.43;;;1.38;;
53309;SDS011;39197;53.200;5.792;2022-08-05T02:49:04;5.00;;;2.65;;
53309;SDS011;39197;53.200;5.792;2022-08-05T02:51:32;4.80;;;1.75;;
53309;SDS011;39197;53.200;5.792;2022-08-05T02:54:00;2.45;;;1.00;;
53309;SDS011;39197;53.200;5.792;2022-08-05T02:56:27;3.65;;;0.80;;
53309;SDS011;39197;53.200;5.792;2022-08-05T02:58:53;5.55;;;0.75;;
53309;SDS011;39197;53.200;5.792;2022-08-05T03:01:22;3.45;;;0.70;;
53309;SDS011;39197;53.200;5.792;2022-08-05T03:03:49;3.20;;;0.95;;
53309;SDS011;39197;53.200;5.792;2022-08-05T03:06:18;1.98;;;1.13;;
53309;SDS011;39197;53.200;5.792;2022-08-05T03:08:46;6.40;;;1.00;;
53309;SDS011;39197;53.200;5.792;2022-08-05T03:11:16;5.10;;;0.82;;
53309;SDS011;39197;53.200;5.792;2022-08-05T03:13:46;3.22;;;1.00;;
53309;SDS011;39197;53.200;5.792;2022-08-05T03:16:12;2.75;;;0.93;;
53309;SDS011;39197;53.200;5.792;2022-08-05T03:18:38;3.08;;;1.30;;
53309;SDS011;39197;53.200;5.792;2022-08-05T03:21:04;4.10;;;1.50;;
53309;SDS011;39197;53.200;5.792;2022-08-05T03:23:31;3.60;;;2.63;;
53309;SDS011;39197;53.200;5.792;2022-08-05T03:25:57;3.47;;;2.53;;
53309;SDS011;39197;53.200;5.792;2022-08-05T03:28:23;5.82;;;1.88;;
53309;SDS011;39197;53.200;5.792;2022-08-05T03:30:49;5.93;;;2.05;;
53309;SDS011;39197;53.200;5.792;2022-08-05T03:33:15;4.00;;;2.35;;
53309;SDS011;39197;53.200;5.792;2022-08-05T03:35:43;5.95;;;2.83;;
53309;SDS011;39197;53.200;5.792;2022-08-05T03:38:10;7.15;;;2.95;;
53309;SDS011;39197;53.200;5.792;2022-08-05T03:40:39;7.53;;;3.67;;
53309;SDS011;39197;53.200;5.792;2022-08-05T03:43:06;5.70;;;2.72;;
53309;SDS011;39197;53.200;5.792;2022-08-05T03:45:31;5.78;;;2.72;;
53309;SDS011;39197;53.200;5.792;2022-08-05T03:47:57;5.07;;;2.10;;
53309;SDS011;39197;53.200;5.792;2022-08-05T03:50:22;4.40;;;2.35;;
53309;SDS011;39197;53.200;5.792;2022-08-05T03:52:56;6.03;;;1.90;;
53309;SDS011;39197;53.200;5.792;2022-08-05T03:55:31;4.10;;;1.98;;
53309;SDS011;39197;53.200;5.792;2022-08-05T03:57:59;3.58;;;1.80;;
53309;SDS011;39197;53.200;5.792;2022-08-05T04:00:26;4.72;;;1.90;;
53309;SDS011;39197;53.200;5.792;2022-08-05T04:02:55;3.65;;;1.60;;
53309;SDS011;39197;53.200;5.792;2022-08-05T04:05:23;7.30;;;2.25;;
53309;SDS011;39197;53.200;5.792;2022-08-05T04:07:52;4.25;;;1.80;;
53309;SDS011;39197;53.200;5.792;2022-08-05T04:10:18;6.38;;;2.15;;
53309;SDS011;39197;53.200;5.792;2022-08-05T04:12:44;4.47;;;2.20;;
53309;SDS011;39197;53.200;5.792;2022-08-05T04:15:10;4.93;;;1.75;;
53309;SDS011;39197;53.200;5.792;2022-08-05T04:17:36;4.40;;;2.22;;
53309;SDS011;39197;53.200;5.792;2022-08-05T04:20:02;5.35;;;2.28;;
53309;SDS011;39197;53.200;5.792;2022-08-05T04:22:28;2.20;;;1.23;;
53309;SDS011;39197;53.200;5.792;2022-08-05T04:24:54;4.85;;;1.80;;
53309;SDS011;39197;53.200;5.792;2022-08-05T04:27:19;4.55;;;1.60;;
53309;SDS011;39197;53.200;5.792;2022-08-05T04:29:45;6.20;;;1.42;;
53309;SDS011;39197;53.200;5.792;2022-08-05T04:32:10;4.03;;;1.40;;
53309;SDS011;39197;53.200;5.792;2022-08-05T04:34:36;3.83;;;1.42;;
53309;SDS011;39197;53.200;5.792;2022-08-05T04:37:02;3.53;;;1.85;;
53309;SDS011;39197;53.200;5.792;2022-08-05T04:39:28;2.53;;;1.35;;
53309;SDS011;39197;53.200;5.792;2022-08-05T04:41:55;5.72;;;1.60;;
53309;SDS011;39197;53.200;5.792;2022-08-05T04:44:20;4.38;;;1.50;;
53309;SDS011;39197;53.200;5.792;2022-08-05T04:46:46;3.95;;;1.50;;
53309;SDS011;39197;53.200;5.792;2022-08-05T04:49:11;3.60;;;1.52;;
53309;SDS011;39197;53.200;5.792;2022-08-05T04:51:37;6.20;;;2.03;;
53309;SDS011;39197;53.200;5.792;2022-08-05T04:54:02;2.47;;;1.50;;
53309;SDS011;39197;53.200;5.792;2022-08-05T04:56:28;7.80;;;2.17;;
53309;SDS011;39197;53.200;5.792;2022-08-05T04:58:53;8.10;;;3.05;;
53309;SDS011;39197;53.200;5.792;2022-08-05T05:01:19;6.68;;;1.90;;
53309;SDS011;39197;53.200;5.792;2022-08-05T05:03:45;3.53;;;2.17;;
53309;SDS011;39197;53.200;5.792;2022-08-05T05:06:11;4.13;;;2.10;;
53309;SDS011;39197;53.200;5.792;2022-08-05T05:08:37;3.30;;;1.92;;
53309;SDS011;39197;53.200;5.792;2022-08-05T05:11:04;5.43;;;2.35;;
53309;SDS011;39197;53.200;5.792;2022-08-05T05:13:30;3.55;;;1.83;;
53309;SDS011;39197;53.200;5.792;2022-08-05T05:15:56;2.88;;;1.65;;
53309;SDS011;39197;53.200;5.792;2022-08-05T05:18:22;3.88;;;1.52;;
53309;SDS011;39197;53.200;5.792;2022-08-05T05:20:47;6.80;;;1.98;;
53309;SDS011;39197;53.200;5.792;2022-08-05T05:23:13;3.25;;;1.30;;
53309;SDS011;39197;53.200;5.792;2022-08-05T05:25:39;8.50;;;1.80;;
53309;SDS011;39197;53.200;5.792;2022-08-05T05:28:05;4.47;;;1.23;;
53309;SDS011;39197;53.200;5.792;2022-08-05T05:30:31;2.55;;;1.00;;
53309;SDS011;39197;53.200;5.792;2022-08-05T05:32:57;3.97;;;1.20;;
53309;SDS011;39197;53.200;5.792;2022-08-05T05:35:24;6.13;;;1.98;;
53309;SDS011;39197;53.200;5.792;2022-08-05T05:37:50;4.18;;;1.35;;
53309;SDS011;39197;53.200;5.792;2022-08-05T05:40:20;6.40;;;1.25;;
53309;SDS011;39197;53.200;5.792;2022-08-05T05:42:48;7.85;;;1.83;;
53309;SDS011;39197;53.200;5.792;2022-08-05T05:45:14;6.20;;;1.45;;
53309;SDS011;39197;53.200;5.792;2022-08-05T05:47:40;4.07;;;0.90;;
53309;SDS011;39197;53.200;5.792;2022-08-05T05:50:07;4.38;;;0.93;;
53309;SDS011;39197;53.200;5.792;2022-08-05T05:52:34;4.80;;;0.95;;
53309;SDS011;39197;53.200;5.792;2022-08-05T05:55:03;2.42;;;0.57;;
53309;SDS011;39197;53.200;5.792;2022-08-05T05:57:30;3.00;;;0.75;;
53309;SDS011;39197;53.200;5.792;2022-08-05T05:59:56;2.92;;;0.50;;
53309;SDS011;39197;53.200;5.792;2022-08-05T06:02:21;2.75;;;0.47;;
53309;SDS011;39197;53.200;5.792;2022-08-05T06:04:47;3.17;;;0.50;;
53309;SDS011;39197;53.200;5.792;2022-08-05T06:07:12;1.50;;;0.40;;
53309;SDS011;39197;53.200;5.792;2022-08-05T06:09:38;4.38;;;0.55;;
53309;SDS011;39197;53.200;5.792;2022-08-05T06:12:04;3.05;;;0.45;;
53309;SDS011;39197;53.200;5.792;2022-08-05T06:14:30;2.60;;;0.40;;
53309;SDS011;39197;53.200;5.792;2022-08-05T06:16:56;3.70;;;0.80;;
53309;SDS011;39197;53.200;5.792;2022-08-05T06:19:22;4.15;;;0.30;;
53309;SDS011;39197;53.200;5.792;2022-08-05T06:21:48;3.00;;;0.40;;
53309;SDS011;39197;53.200;5.792;2022-08-05T06:24:14;1.05;;;0.30;;
53309;SDS011;39197;53.200;5.792;2022-08-05T06:26:39;3.42;;;0.32;;
53309;SDS011;39197;53.200;5.792;2022-08-05T06:29:05;3.22;;;0.40;;
53309;SDS011;39197;53.200;5.792;2022-08-05T06:31:31;3.10;;;0.30;;
53309;SDS011;39197;53.200;5.792;2022-08-05T06:33:56;2.72;;;0.45;;
53309;SDS011;39197;53.200;5.792;2022-08-05T06:36:22;5.75;;;0.95;;
53309;SDS011;39197;53.200;5.792;2022-08-05T06:38:48;5.30;;;0.57;;
53309;SDS011;39197;53.200;5.792;2022-08-05T06:41:17;3.70;;;0.75;;
53309;SDS011;39197;53.200;5.792;2022-08-05T06:43:43;4.32;;;0.75;;
53309;SDS011;39197;53.200;5.792;2022-08-05T06:46:09;5.90;;;0.50;;
53309;SDS011;39197;53.200;5.792;2022-08-05T06:48:34;3.33;;;0.50;;
53309;SDS011;39197;53.200;5.792;2022-08-05T06:51:00;5.03;;;0.38;;
53309;SDS011;39197;53.200;5.792;2022-08-05T06:53:26;3.45;;;0.50;;
53309;SDS011;39197;53.200;5.792;2022-08-05T06:55:52;2.25;;;0.20;;
53309;SDS011;39197;53.200;5.792;2022-08-05T06:58:18;2.55;;;0.30;;
53309;SDS011;39197;53.200;5.792;2022-08-05T07:00:43;4.88;;;0.32;;
53309;SDS011;39197;53.200;5.792;2022-08-05T07:03:09;1.83;;;0.20;;
53309;SDS011;39197;53.200;5.792;2022-08-05T07:05:35;3.00;;;0.40;;
53309;SDS011;39197;53.200;5.792;2022-08-05T07:08:00;2.50;;;0.45;;
53309;SDS011;39197;53.200;5.792;2022-08-05T07:10:26;2.05;;;0.60;;
53309;SDS011;39197;53.200;5.792;2022-08-05T07:12:51;3.15;;;0.40;;
53309;SDS011;39197;53.200;5.792;2022-08-05T07:15:35;5.30;;;0.30;;
53309;SDS011;39197;53.200;5.792;2022-08-05T07:18:19;1.40;;;0.20;;
53309;SDS011;39197;53.200;5.792;2022-08-05T07:20:45;3.97;;;0.40;;
53309;SDS011;39197;53.200;5.792;2022-08-05T07:23:11;2.47;;;0.43;;
53309;SDS011;39197;53.200;5.792;2022-08-05T07:25:36;3.25;;;0.30;;
53309;SDS011;39197;53.200;5.792;2022-08-05T07:28:02;2.70;;;0.45;;
53309;SDS011;39197;53.200;5.792;2022-08-05T07:30:34;3.72;;;0.95;;
53309;SDS011;39197;53.200;5.792;2022-08-05T07:33:02;5.25;;;0.70;;
53309;SDS011;39197;53.200;5.792;2022-08-05T07:35:29;2.10;;;0.88;;
53309;SDS011;39197;53.200;5.792;2022-08-05T07:37:55;4.25;;;1.02;;
53309;SDS011;39197;53.200;5.792;2022-08-05T07:40:20;3.47;;;0.30;;
53309;SDS011;39197;53.200;5.792;2022-08-05T07:42:47;3.65;;;0.30;;
53309;SDS011;39197;53.200;5.792;2022-08-05T07:45:12;1.92;;;0.30;;
53309;SDS011;39197;53.200;5.792;2022-08-05T07:47:38;2.08;;;0.50;;
53309;SDS011;39197;53.200;5.792;2022-08-05T07:50:04;2.20;;;0.40;;
53309;SDS011;39197;53.200;5.792;2022-08-05T07:52:30;3.33;;;0.38;;
53309;SDS011;39197;53.200;5.792;2022-08-05T07:54:56;2.20;;;0.30;;
53309;SDS011;39197;53.200;5.792;2022-08-05T07:57:21;3.58;;;0.57;;
53309;SDS011;39197;53.200;5.792;2022-08-05T07:59:47;3.65;;;0.40;;
53309;SDS011;39197;53.200;5.792;2022-08-05T08:02:13;4.38;;;0.40;;
53309;SDS011;39197;53.200;5.792;2022-08-05T08:04:38;7.45;;;0.40;;
53309;SDS011;39197;53.200;5.792;2022-08-05T08:07:04;3.88;;;0.40;;
53309;SDS011;39197;53.200;5.792;2022-08-05T08:09:30;2.10;;;0.20;;
53309;SDS011;39197;53.200;5.792;2022-08-05T08:11:55;2.38;;;0.30;;
53309;SDS011;39197;53.200;5.792;2022-08-05T08:14:21;3.00;;;0.22;;
53309;SDS011;39197;53.200;5.792;2022-08-05T08:16:47;2.03;;;0.20;;
53309;SDS011;39197;53.200;5.792;2022-08-05T08:19:12;2.03;;;0.30;;
53309;SDS011;39197;53.200;5.792;2022-08-05T08:21:38;2.47;;;0.40;;
53309;SDS011;39197;53.200;5.792;2022-08-05T08:24:03;2.70;;;0.40;;
53309;SDS011;39197;53.200;5.792;2022-08-05T08:26:30;4.43;;;0.32;;
53309;SDS011;39197;53.200;5.792;2022-08-05T08:28:57;2.33;;;0.50;;
53309;SDS011;39197;53.200;5.792;2022-08-05T08:31:23;3.42;;;1.15;;
53309;SDS011;39197;53.200;5.792;2022-08-05T08:33:49;4.47;;;0.63;;
53309;SDS011;39197;53.200;5.792;2022-08-05T08:36:14;2.58;;;0.30;;
53309;SDS011;39197;53.200;5.792;2022-08-05T08:38:40;1.13;;;0.10;;
53309;SDS011;39197;53.200;5.792;2022-08-05T08:41:06;5.80;;;0.32;;
53309;SDS011;39197;53.200;5.792;2022-08-05T08:43:37;2.55;;;0.20;;
53309;SDS011;39197;53.200;5.792;2022-08-05T08:46:05;3.10;;;0.30;;
53309;SDS011;39197;53.200;5.792;2022-08-05T08:48:31;1.58;;;0.40;;
53309;SDS011;39197;53.200;5.792;2022-08-05T08:50:59;1.08;;;0.10;;
53309;SDS011;39197;53.200;5.792;2022-08-05T08:53:27;1.95;;;0.25;;
53309;SDS011;39197;53.200;5.792;2022-08-05T08:56:02;1.55;;;0.10;;
53309;SDS011;39197;53.200;5.792;2022-08-05T08:58:31;1.33;;;0.30;;
53309;SDS011;39197;53.200;5.792;2022-08-05T09:00:57;1.92;;;0.35;;
53309;SDS011;39197;53.200;5.792;2022-08-05T09:03:23;0.82;;;0.22;;
53309;SDS011;39197;53.200;5.792;2022-08-05T09:05:49;0.95;;;0.20;;
53309;SDS011;39197;53.200;5.792;2022-08-05T09:08:14;3.50;;;0.90;;
53309;SDS011;39197;53.200;5.792;2022-08-05T09:10:41;2.85;;;0.70;;
53309;SDS011;39197;53.200;5.792;2022-08-05T09:13:09;1.20;;;0.20;;
53309;SDS011;39197;53.200;5.792;2022-08-05T09:15:37;1.25;;;0.20;;
53309;SDS011;39197;53.200;5.792;2022-08-05T09:18:07;0.82;;;0.13;;
53309;SDS011;39197;53.200;5.792;2022-08-05T09:20:33;5.05;;;1.98;;
53309;SDS011;39197;53.200;5.792;2022-08-05T09:23:06;4.80;;;1.60;;
53309;SDS011;39197;53.200;5.792;2022-08-05T09:25:34;3.33;;;1.33;;
53309;SDS011;39197;53.200;5.792;2022-08-05T09:30:36;3.42;;;0.43;;
53309;SDS011;39197;53.200;5.792;2022-08-05T09:33:02;4.80;;;0.40;;
53309;SDS011;39197;53.200;5.792;2022-08-05T09:35:28;3.00;;;0.50;;
53309;SDS011;39197;53.200;5.792;2022-08-05T09:37:54;0.98;;;0.10;;
53309;SDS011;39197;53.200;5.792;2022-08-05T09:40:37;0.70;;;0.20;;
53309;SDS011;39197;53.200;5.792;2022-08-05T09:43:06;1.85;;;0.60;;
53309;SDS011;39197;53.200;5.792;2022-08-05T09:45:40;1.27;;;0.43;;
53309;SDS011;39197;53.200;5.792;2022-08-05T09:48:23;1.52;;;0.10;;
53309;SDS011;39197;53.200;5.792;2022-08-05T09:50:58;1.13;;;0.57;;
53309;SDS011;39197;53.200;5.792;2022-08-05T09:53:25;3.65;;;0.70;;
53309;SDS011;39197;53.200;5.792;2022-08-05T09:55:55;1.77;;;0.25;;
53309;SDS011;39197;53.200;5.792;2022-08-05T10:01:02;1.25;;;0.20;;
53309;SDS011;39197;53.200;5.792;2022-08-05T10:05:59;1.58;;;0.30;;
53309;SDS011;39197;53.200;5.792;2022-08-05T10:08:30;8.48;;;0.98;;
53309;SDS011;39197;53.200;5.792;2022-08-05T10:10:56;1.10;;;0.40;;
53309;SDS011;39197;53.200;5.792;2022-08-05T10:13:34;0.73;;;0.10;;
53309;SDS011;39197;53.200;5.792;2022-08-05T10:16:03;1.30;;;0.10;;
53309;SDS011;39197;53.200;5.792;2022-08-05T10:18:30;1.83;;;0.15;;
53309;SDS011;39197;53.200;5.792;2022-08-05T10:21:01;2.17;;;0.40;;
53309;SDS011;39197;53.200;5.792;2022-08-05T10:23:33;2.17;;;0.32;;
53309;SDS011;39197;53.200;5.792;2022-08-05T10:26:01;2.03;;;0.25;;
53309;SDS011;39197;53.200;5.792;2022-08-05T10:28:33;2.63;;;0.20;;
53309;SDS011;39197;53.200;5.792;2022-08-05T10:31:00;2.03;;;0.25;;
53309;SDS011;39197;53.200;5.792;2022-08-05T10:33:28;0.70;;;0.10;;
53309;SDS011;39197;53.200;5.792;2022-08-05T10:35:56;0.65;;;0.17;;
53309;SDS011;39197;53.200;5.792;2022-08-05T10:38:23;1.40;;;0.32;;
53309;SDS011;39197;53.200;5.792;2022-08-05T10:40:53;0.70;;;0.38;;
53309;SDS011;39197;53.200;5.792;2022-08-05T10:48:38;1.33;;;0.20;;
53309;SDS011;39197;53.200;5.792;2022-08-05T10:53:38;1.40;;;0.30;;
53309;SDS011;39197;53.200;5.792;2022-08-05T10:58:31;1.45;;;0.52;;
53309;SDS011;39197;53.200;5.792;2022-08-05T11:00:58;0.35;;;0.10;;
53309;SDS011;39197;53.200;5.792;2022-08-05T11:03:27;1.75;;;0.10;;
53309;SDS011;39197;53.200;5.792;2022-08-05T11:06:06;2.85;;;0.52;;
53309;SDS011;39197;53.200;5.792;2022-08-05T11:08:34;2.50;;;0.40;;
53309;SDS011;39197;53.200;5.792;2022-08-05T11:13:56;1.17;;;0.40;;
53309;SDS011;39197;53.200;5.792;2022-08-05T11:16:23;2.88;;;0.35;;
53309;SDS011;39197;53.200;5.792;2022-08-05T11:19:22;2.30;;;0.17;;
53309;SDS011;39197;53.200;5.792;2022-08-05T11:21:51;1.33;;;0.10;;
53309;SDS011;39197;53.200;5.792;2022-08-05T11:24:18;2.90;;;0.20;;
53309;SDS011;39197;53.200;5.792;2022-08-05T11:26:45;3.35;;;1.02;;
53309;SDS011;39197;53.200;5.792;2022-08-05T11:34:49;1.67;;;0.50;;
53309;SDS011;39197;53.200;5.792;2022-08-05T11:40:18;2.33;;;0.20;;
53309;SDS011;39197;53.200;5.792;2022-08-05T11:42:44;1.48;;;0.55;;
53309;SDS011;39197;53.200;5.792;2022-08-05T11:45:10;3.35;;;1.60;;
53309;SDS011;39197;53.200;5.792;2022-08-05T11:47:36;1.95;;;0.63;;
53309;SDS011;39197;53.200;5.792;2022-08-05T11:50:03;1.63;;;1.00;;
53309;SDS011;39197;53.200;5.792;2022-08-05T11:52:29;4.22;;;0.65;;
53309;SDS011;39197;53.200;5.792;2022-08-05T11:54:55;2.58;;;0.20;;
53309;SDS011;39197;53.200;5.792;2022-08-05T11:57:26;2.22;;;0.45;;
53309;SDS011;39197;53.200;5.792;2022-08-05T11:59:55;3.13;;;0.80;;
53309;SDS011;39197;53.200;5.792;2022-08-05T12:02:23;4.47;;;1.88;;
53309;SDS011;39197;53.200;5.792;2022-08-05T12:04:50;1.85;;;0.70;;
53309;SDS011;39197;53.200;5.792;2022-08-05T12:07:16;1.55;;;0.40;;
53309;SDS011;39197;53.200;5.792;2022-08-05T12:09:43;5.35;;;1.33;;
53309;SDS011;39197;53.200;5.792;2022-08-05T12:12:12;0.70;;;0.10;;
53309;SDS011;39197;53.200;5.792;2022-08-05T12:14:46;1.10;;;0.20;;
53309;SDS011;39197;53.200;5.792;2022-08-05T12:17:12;2.65;;;0.40;;
53309;SDS011;39197;53.200;5.792;2022-08-05T12:19:39;1.05;;;0.20;;
53309;SDS011;39197;53.200;5.792;2022-08-05T12:22:06;1.35;;;0.10;;
53309;SDS011;39197;53.200;5.792;2022-08-05T12:24:33;1.27;;;0.30;;
53309;SDS011;39197;53.200;5.792;2022-08-05T12:26:59;3.22;;;0.40;;
53309;SDS011;39197;53.200;5.792;2022-08-05T12:29:26;3.17;;;0.20;;
53309;SDS011;39197;53.200;5.792;2022-08-05T12:31:54;1.20;;;0.20;;
53309;SDS011;39197;53.200;5.792;2022-08-05T12:34:30;1.60;;;0.20;;
53309;SDS011;39197;53.200;5.792;2022-08-05T12:37:03;0.77;;;0.10;;
53309;SDS011;39197;53.200;5.792;2022-08-05T12:39:37;0.88;;;0.43;;
53309;SDS011;39197;53.200;5.792;2022-08-05T12:42:07;3.53;;;1.30;;
53309;SDS011;39197;53.200;5.792;2022-08-05T12:44:37;4.38;;;3.13;;
53309;SDS011;39197;53.200;5.792;2022-08-05T12:47:03;3.08;;;0.57;;
53309;SDS011;39197;53.200;5.792;2022-08-05T12:52:10;6.07;;;1.25;;
53309;SDS011;39197;53.200;5.792;2022-08-05T12:54:40;6.72;;;0.90;;
53309;SDS011;39197;53.200;5.792;2022-08-05T12:57:08;7.10;;;1.42;;
53309;SDS011;39197;53.200;5.792;2022-08-05T12:59:44;10.45;;;1.13;;
53309;SDS011;39197;53.200;5.792;2022-08-05T13:02:29;4.78;;;1.67;;
53309;SDS011;39197;53.200;5.792;2022-08-05T13:04:55;4.25;;;1.15;;
53309;SDS011;39197;53.200;5.792;2022-08-05T13:07:24;5.35;;;0.90;;
53309;SDS011;39197;53.200;5.792;2022-08-05T13:09:52;4.18;;;0.40;;
53309;SDS011;39197;53.200;5.792;2022-08-05T13:12:21;6.00;;;1.00;;
53309;SDS011;39197;53.200;5.792;2022-08-05T13:15:00;3.90;;;0.50;;
53309;SDS011;39197;53.200;5.792;2022-08-05T13:17:29;4.50;;;0.60;;
53309;SDS011;39197;53.200;5.792;2022-08-05T13:22:25;4.60;;;1.58;;
53309;SDS011;39197;53.200;5.792;2022-08-05T13:24:51;5.13;;;1.02;;
53309;SDS011;39197;53.200;5.792;2022-08-05T13:27:23;3.60;;;0.30;;
53309;SDS011;39197;53.200;5.792;2022-08-05T13:29:54;2.63;;;0.20;;
53309;SDS011;39197;53.200;5.792;2022-08-05T13:32:19;5.40;;;1.58;;
53309;SDS011;39197;53.200;5.792;2022-08-05T13:34:45;2.92;;;0.77;;
53309;SDS011;39197;53.200;5.792;2022-08-05T13:37:12;2.50;;;0.50;;
53309;SDS011;39197;53.200;5.792;2022-08-05T13:39:38;5.70;;;4.00;;
53309;SDS011;39197;53.200;5.792;2022-08-05T13:42:04;2.47;;;0.50;;
53309;SDS011;39197;53.200;5.792;2022-08-05T13:44:30;1.67;;;0.40;;
53309;SDS011;39197;53.200;5.792;2022-08-05T13:46:55;3.15;;;1.23;;
53309;SDS011;39197;53.200;5.792;2022-08-05T13:49:21;2.03;;;0.80;;
53309;SDS011;39197;53.200;5.792;2022-08-05T13:51:46;1.35;;;0.30;;
53309;SDS011;39197;53.200;5.792;2022-08-05T13:54:12;2.42;;;0.30;;
53309;SDS011;39197;53.200;5.792;2022-08-05T13:56:39;1.55;;;0.50;;
53309;SDS011;39197;53.200;5.792;2022-08-05T13:59:05;2.22;;;0.17;;
53309;SDS011;39197;53.200;5.792;2022-08-05T14:01:31;1.73;;;0.50;;
53309;SDS011;39197;53.200;5.792;2022-08-05T14:03:58;2.50;;;0.82;;
53309;SDS011;39197;53.200;5.792;2022-08-05T14:06:42;0.90;;;0.10;;
53309;SDS011;39197;53.200;5.792;2022-08-05T14:09:08;2.05;;;0.28;;
53309;SDS011;39197;53.200;5.792;2022-08-05T14:11:34;3.05;;;0.30;;
53309;SDS011;39197;53.200;5.792;2022-08-05T14:14:03;2.03;;;0.60;;
53309;SDS011;39197;53.200;5.792;2022-08-05T14:16:29;1.73;;;0.98;;
53309;SDS011;39197;53.200;5.792;2022-08-05T14:18:54;1.52;;;0.30;;
53309;SDS011;39197;53.200;5.792;2022-08-05T14:21:20;2.92;;;0.80;;
53309;SDS011;39197;53.200;5.792;2022-08-05T14:23:45;2.63;;;1.23;;
53309;SDS011;39197;53.200;5.792;2022-08-05T14:26:11;4.13;;;1.58;;
53309;SDS011;39197;53.200;5.792;2022-08-05T14:28:37;2.83;;;0.70;;
53309;SDS011;39197;53.200;5.792;2022-08-05T14:31:02;2.58;;;0.65;;
53309;SDS011;39197;53.200;5.792;2022-08-05T14:33:31;3.40;;;0.77;;
53309;SDS011;39197;53.200;5.792;2022-08-05T14:35:57;3.10;;;0.70;;
53309;SDS011;39197;53.200;5.792;2022-08-05T14:38:23;5.13;;;0.43;;
53309;SDS011;39197;53.200;5.792;2022-08-05T14:40:49;3.28;;;0.70;;
53309;SDS011;39197;53.200;5.792;2022-08-05T14:43:15;1.65;;;0.47;;
53309;SDS011;39197;53.200;5.792;2022-08-05T14:45:40;1.80;;;0.50;;
53309;SDS011;39197;53.200;5.792;2022-08-05T14:48:06;2.08;;;0.40;;
53309;SDS011;39197;53.200;5.792;2022-08-05T14:50:32;2.63;;;0.40;;
53309;SDS011;39197;53.200;5.792;2022-08-05T14:52:58;4.28;;;0.80;;
53309;SDS011;39197;53.200;5.792;2022-08-05T14:55:23;6.57;;;3.85;;
53309;SDS011;39197;53.200;5.792;2022-08-05T14:57:50;4.38;;;2.70;;
53309;SDS011;39197;53.200;5.792;2022-08-05T15:00:16;3.95;;;1.38;;
53309;SDS011;39197;53.200;5.792;2022-08-05T15:02:41;2.05;;;0.47;;
53309;SDS011;39197;53.200;5.792;2022-08-05T15:05:07;2.53;;;0.43;;
53309;SDS011;39197;53.200;5.792;2022-08-05T15:07:33;3.78;;;1.05;;
53309;SDS011;39197;53.200;5.792;2022-08-05T15:09:58;3.78;;;0.70;;
53309;SDS011;39197;53.200;5.792;2022-08-05T15:12:24;5.35;;;3.03;;
53309;SDS011;39197;53.200;5.792;2022-08-05T15:14:49;2.85;;;0.45;;
53309;SDS011;39197;53.200;5.792;2022-08-05T15:17:15;1.98;;;0.70;;
53309;SDS011;39197;53.200;5.792;2022-08-05T15:19:44;2.47;;;0.20;;
53309;SDS011;39197;53.200;5.792;2022-08-05T15:22:10;2.55;;;1.58;;
53309;SDS011;39197;53.200;5.792;2022-08-05T15:24:38;1.90;;;0.30;;
53309;SDS011;39197;53.200;5.792;2022-08-05T15:27:03;2.60;;;0.55;;
53309;SDS011;39197;53.200;5.792;2022-08-05T15:29:29;3.25;;;0.30;;
53309;SDS011;39197;53.200;5.792;2022-08-05T15:31:55;3.00;;;1.25;;
53309;SDS011;39197;53.200;5.792;2022-08-05T15:34:20;2.88;;;0.32;;
53309;SDS011;39197;53.200;5.792;2022-08-05T15:36:46;2.97;;;1.17;;
53309;SDS011;39197;53.200;5.792;2022-08-05T15:39:12;3.08;;;1.00;;
53309;SDS011;39197;53.200;5.792;2022-08-05T15:41:37;2.13;;;0.68;;